QTR779 OTHH-SBGR
Flight info
| Callsign | QTR779 |
|---|---|
| Flight time | N/A |
| Altitude | 34000 |
| Route | DATRI DCT DEMTA DCT 21N051E DCT KUTMA M318 HDH A408 BOPSA UL432 GWZ L432 EKBUL UL432 NABRO UY288 OVPAP UM216 VNA UL340 BOSNI/N0500F360 UL340 ROGOM/N0491F380 UL340 ESORU UZ10 EDMUS |
| Aircraft | A35K/H-SDE2E3GHIJ3J4J5LM1ORWXY/LB1D1 |
Departure
| Time | N/A |
|---|---|
| Airport | Hamad International Airport (OTHH) |
Arrival
| Time | 2026-05-05 19:37 |
|---|---|
| Airport | São Paulo/Guarulhos–Governor André Franco Montoro International Airport (SBGR) |
| Time | Latitude | Longitude | Altitude | Speed | Heading |
|---|---|---|---|---|---|
| 2026-05-05 19:08 | -22.92122 | -44.19369 | 38163 ft | 451 kts | 253° |
| 2026-05-05 19:08 | -22.92887 | -44.22704 | 38163 ft | 451 kts | 253° |
| 2026-05-05 19:08 | -22.94389 | -44.29271 | 38168 ft | 451 kts | 253° |
| 2026-05-05 19:09 | -22.95894 | -44.35871 | 38166 ft | 451 kts | 253° |
| 2026-05-05 19:09 | -22.97401 | -44.42485 | 38177 ft | 451 kts | 253° |
| 2026-05-05 19:10 | -22.98149 | -44.45776 | 37939 ft | 448 kts | 253° |
| 2026-05-05 19:10 | -22.98894 | -44.49055 | 37669 ft | 448 kts | 253° |
| 2026-05-05 19:10 | -22.99639 | -44.52337 | 37409 ft | 449 kts | 253° |
| 2026-05-05 19:10 | -23.00388 | -44.55639 | 37150 ft | 450 kts | 253° |
| 2026-05-05 19:11 | -23.01138 | -44.58947 | 36897 ft | 451 kts | 253° |
| 2026-05-05 19:11 | -23.01887 | -44.62254 | 36635 ft | 452 kts | 253° |
| 2026-05-05 19:11 | -23.02636 | -44.65565 | 36353 ft | 452 kts | 253° |
| 2026-05-05 19:11 | -23.03383 | -44.68871 | 35832 ft | 449 kts | 253° |
| 2026-05-05 19:12 | -23.04123 | -44.72156 | 35190 ft | 448 kts | 253° |
| 2026-05-05 19:12 | -23.04861 | -44.75443 | 34466 ft | 450 kts | 254° |
| 2026-05-05 19:12 | -23.05605 | -44.78759 | 33791 ft | 450 kts | 254° |
| 2026-05-05 19:12 | -23.06341 | -44.82043 | 33261 ft | 445 kts | 254° |
| 2026-05-05 19:13 | -23.07070 | -44.85290 | 32754 ft | 441 kts | 254° |
| 2026-05-05 19:13 | -23.07791 | -44.88510 | 32243 ft | 437 kts | 254° |
| 2026-05-05 19:13 | -23.08507 | -44.91706 | 31728 ft | 434 kts | 254° |
| 2026-05-05 19:13 | -23.09207 | -44.94829 | 31227 ft | 430 kts | 254° |
| 2026-05-05 19:14 | -23.09913 | -44.97983 | 30730 ft | 427 kts | 254° |
| 2026-05-05 19:14 | -23.10613 | -45.01116 | 30220 ft | 424 kts | 254° |
| 2026-05-05 19:14 | -23.11307 | -45.04224 | 29682 ft | 421 kts | 254° |
| 2026-05-05 19:14 | -23.11991 | -45.07293 | 29199 ft | 416 kts | 254° |
| 2026-05-05 19:15 | -23.12669 | -45.10333 | 28702 ft | 412 kts | 254° |
| 2026-05-05 19:15 | -23.13340 | -45.13348 | 28222 ft | 409 kts | 254° |
| 2026-05-05 19:15 | -23.14008 | -45.16348 | 27753 ft | 407 kts | 254° |
| 2026-05-05 19:15 | -23.14673 | -45.19338 | 27271 ft | 406 kts | 254° |
| 2026-05-05 19:16 | -23.15335 | -45.22317 | 26795 ft | 405 kts | 254° |
| 2026-05-05 19:16 | -23.15985 | -45.25249 | 26326 ft | 403 kts | 254° |
| 2026-05-05 19:16 | -23.16640 | -45.28206 | 25852 ft | 401 kts | 254° |
| 2026-05-05 19:16 | -23.17293 | -45.31152 | 25378 ft | 400 kts | 254° |
| 2026-05-05 19:17 | -23.17943 | -45.34088 | 24895 ft | 399 kts | 254° |
| 2026-05-05 19:17 | -23.18591 | -45.37021 | 24423 ft | 397 kts | 255° |
| 2026-05-05 19:17 | -23.19236 | -45.39938 | 23947 ft | 396 kts | 254° |
| 2026-05-05 19:17 | -23.19884 | -45.42850 | 23435 ft | 395 kts | 255° |
| 2026-05-05 19:18 | -23.20525 | -45.45740 | 22933 ft | 392 kts | 255° |
| 2026-05-05 19:18 | -23.21157 | -45.48617 | 22503 ft | 389 kts | 255° |
| 2026-05-05 19:18 | -23.21639 | -45.51151 | 22147 ft | 388 kts | 257° |
| 2026-05-05 19:18 | -23.22050 | -45.53509 | 21780 ft | 387 kts | 257° |
| 2026-05-05 19:19 | -23.22551 | -45.56374 | 21356 ft | 385 kts | 257° |
| 2026-05-05 19:19 | -23.23057 | -45.59229 | 20918 ft | 383 kts | 257° |
| 2026-05-05 19:19 | -23.23564 | -45.62069 | 20476 ft | 381 kts | 257° |
| 2026-05-05 19:19 | -23.24068 | -45.64890 | 20052 ft | 379 kts | 257° |
| 2026-05-05 19:20 | -23.24572 | -45.67700 | 19611 ft | 378 kts | 257° |
| 2026-05-05 19:20 | -23.25076 | -45.70500 | 19178 ft | 376 kts | 257° |
| 2026-05-05 19:20 | -23.25576 | -45.73288 | 18746 ft | 375 kts | 257° |
| 2026-05-05 19:20 | -23.26075 | -45.76070 | 18284 ft | 373 kts | 258° |
| 2026-05-05 19:21 | -23.26569 | -45.78826 | 17829 ft | 370 kts | 258° |
| 2026-05-05 19:21 | -23.27059 | -45.81564 | 17402 ft | 367 kts | 258° |
| 2026-05-05 19:21 | -23.27538 | -45.84244 | 16978 ft | 365 kts | 258° |
| 2026-05-05 19:21 | -23.28021 | -45.86946 | 16555 ft | 363 kts | 258° |
| 2026-05-05 19:22 | -23.28500 | -45.89629 | 16117 ft | 361 kts | 258° |
| 2026-05-05 19:22 | -23.28978 | -45.92311 | 15700 ft | 359 kts | 258° |
| 2026-05-05 19:22 | -23.29450 | -45.94959 | 15238 ft | 356 kts | 258° |
| 2026-05-05 19:22 | -23.29920 | -45.97599 | 14811 ft | 354 kts | 258° |
| 2026-05-05 19:23 | -23.30385 | -46.00214 | 14400 ft | 351 kts | 258° |
| 2026-05-05 19:23 | -23.30635 | -46.02890 | 14009 ft | 362 kts | 270° |
| 2026-05-05 19:23 | -23.30426 | -46.05647 | 13559 ft | 367 kts | 277° |
| 2026-05-05 19:23 | -23.30087 | -46.08395 | 13120 ft | 366 kts | 278° |
| 2026-05-05 19:24 | -23.29736 | -46.11131 | 12634 ft | 364 kts | 278° |
| 2026-05-05 19:24 | -23.29383 | -46.13854 | 12093 ft | 361 kts | 278° |
| 2026-05-05 19:24 | -23.29034 | -46.16536 | 11606 ft | 357 kts | 278° |
| 2026-05-05 19:24 | -23.28688 | -46.19193 | 11139 ft | 352 kts | 278° |
| 2026-05-05 19:25 | -23.28348 | -46.21814 | 10677 ft | 347 kts | 278° |
| 2026-05-05 19:25 | -23.28016 | -46.24368 | 10227 ft | 343 kts | 278° |
| 2026-05-05 19:25 | -23.27687 | -46.26907 | 9858 ft | 335 kts | 278° |
| 2026-05-05 19:25 | -23.27363 | -46.29390 | 9482 ft | 328 kts | 278° |
| 2026-05-05 19:26 | -23.27042 | -46.31817 | 9112 ft | 320 kts | 278° |
| 2026-05-05 19:26 | -23.26726 | -46.34193 | 8755 ft | 314 kts | 278° |
| 2026-05-05 19:26 | -23.26412 | -46.36513 | 8387 ft | 307 kts | 278° |
| 2026-05-05 19:26 | -23.26104 | -46.38795 | 8029 ft | 301 kts | 278° |
| 2026-05-05 19:27 | -23.25806 | -46.41032 | 7674 ft | 296 kts | 278° |
| 2026-05-05 19:27 | -23.25508 | -46.43232 | 7329 ft | 291 kts | 278° |
| 2026-05-05 19:27 | -23.25203 | -46.45386 | 7098 ft | 287 kts | 278° |
| 2026-05-05 19:27 | -23.24897 | -46.47525 | 6872 ft | 286 kts | 278° |
| 2026-05-05 19:28 | -23.24592 | -46.49656 | 6632 ft | 285 kts | 278° |
| 2026-05-05 19:28 | -23.24285 | -46.51755 | 6393 ft | 284 kts | 278° |
| 2026-05-05 19:28 | -23.23974 | -46.53872 | 6147 ft | 283 kts | 278° |
| 2026-05-05 19:28 | -23.23743 | -46.55988 | 5931 ft | 281 kts | 269° |
| 2026-05-05 19:29 | -23.24000 | -46.58082 | 5904 ft | 280 kts | 251° |
| 2026-05-05 19:29 | -23.24950 | -46.59896 | 5857 ft | 277 kts | 225° |
| 2026-05-05 19:29 | -23.26501 | -46.61104 | 5811 ft | 274 kts | 208° |
| 2026-05-05 19:29 | -23.28187 | -46.62088 | 5779 ft | 276 kts | 207° |
| 2026-05-05 19:30 | -23.29887 | -46.63060 | 5724 ft | 276 kts | 207° |
| 2026-05-05 19:30 | -23.31580 | -46.64034 | 5655 ft | 275 kts | 207° |
| 2026-05-05 19:30 | -23.33270 | -46.65011 | 5603 ft | 275 kts | 207° |
| 2026-05-05 19:30 | -23.34961 | -46.65991 | 5548 ft | 274 kts | 207° |
| 2026-05-05 19:31 | -23.36637 | -46.66966 | 5492 ft | 271 kts | 207° |
| 2026-05-05 19:31 | -23.38258 | -46.67909 | 5379 ft | 257 kts | 207° |
| 2026-05-05 19:31 | -23.39808 | -46.68784 | 5273 ft | 244 kts | 204° |
| 2026-05-05 19:31 | -23.41389 | -46.69249 | 5206 ft | 228 kts | 185° |
| 2026-05-05 19:32 | -23.42890 | -46.69104 | 5171 ft | 208 kts | 159° |
| 2026-05-05 19:32 | -23.44014 | -46.68251 | 5129 ft | 191 kts | 131° |
| 2026-05-05 19:32 | -23.44813 | -46.67116 | 5065 ft | 189 kts | 126° |
| 2026-05-05 19:32 | -23.45565 | -46.65933 | 5008 ft | 189 kts | 126° |
| 2026-05-05 19:33 | -23.46310 | -46.64749 | 4956 ft | 189 kts | 125° |
| 2026-05-05 19:33 | -23.47014 | -46.63566 | 4912 ft | 189 kts | 121° |
| 2026-05-05 19:33 | -23.47264 | -46.62160 | 4876 ft | 191 kts | 92° |
| 2026-05-05 19:33 | -23.47126 | -46.60766 | 4698 ft | 185 kts | 76° |
| 2026-05-05 19:34 | -23.46732 | -46.59440 | 4428 ft | 182 kts | 76° |
| 2026-05-05 19:34 | -23.46411 | -46.58127 | 4184 ft | 177 kts | 76° |
| 2026-05-05 19:34 | -23.46068 | -46.56860 | 3950 ft | 170 kts | 77° |
| 2026-05-05 19:35 | -23.45457 | -46.54566 | 3570 ft | 148 kts | 76° |
| 2026-05-05 19:35 | -23.45171 | -46.53502 | 3397 ft | 147 kts | 76° |
| 2026-05-05 19:35 | -23.44884 | -46.52434 | 3205 ft | 146 kts | 74° |
| 2026-05-05 19:35 | -23.44596 | -46.51368 | 3010 ft | 148 kts | 73° |
| 2026-05-05 19:36 | -23.44318 | -46.50311 | 2790 ft | 142 kts | 72° |
| 2026-05-05 19:36 | -23.44032 | -46.49266 | 2582 ft | 146 kts | 72° |
| 2026-05-05 19:36 | -23.43747 | -46.48190 | 2476 ft | 145 kts | 71° |
| 2026-05-05 19:36 | -23.43497 | -46.47278 | 2474 ft | 102 kts | 73° |
| 2026-05-05 19:37 | -23.43343 | -46.46713 | 2474 ft | 53 kts | 74° |
| 2026-05-05 19:37 | -23.43257 | -46.46427 | 2475 ft | 36 kts | 59° |
| 2026-05-05 19:37 | -23.43104 | -46.46244 | 2475 ft | 26 kts | 43° |
| 2026-05-05 19:37 | -23.42992 | -46.46141 | 2475 ft | 19 kts | 23° |
| 2026-05-05 19:38 | -23.42888 | -46.46157 | 2476 ft | 15 kts | 343° |
| 2026-05-05 19:38 | -23.42784 | -46.46190 | 2476 ft | 17 kts | 343° |
| 2026-05-05 19:38 | -23.42682 | -46.46223 | 2475 ft | 14 kts | 342° |
| 2026-05-05 19:38 | -23.42613 | -46.46279 | 2474 ft | 6 kts | 264° |
| 2026-05-05 19:39 | -23.42634 | -46.46351 | 2474 ft | 14 kts | 252° |
| 2026-05-05 19:39 | -23.42670 | -46.46483 | 2474 ft | 22 kts | 253° |
| 2026-05-05 19:39 | -23.42720 | -46.46670 | 2475 ft | 28 kts | 253° |
| 2026-05-05 19:39 | -23.42776 | -46.46878 | 2474 ft | 30 kts | 253° |
| 2026-05-05 19:40 | -23.42830 | -46.47075 | 2474 ft | 17 kts | 255° |
| 2026-05-05 19:40 | -23.42783 | -46.47136 | 2474 ft | 13 kts | 339° |
| 2026-05-05 19:40 | -23.42683 | -46.47169 | 2474 ft | 16 kts | 343° |
| 2026-05-05 19:40 | -23.42594 | -46.47198 | 2474 ft | 6 kts | 343° |
| 2026-05-05 19:41 | -23.42568 | -46.47223 | 2474 ft | 5 kts | 279° |
| 2026-05-05 19:41 | -23.42580 | -46.47284 | 2474 ft | 7 kts | 251° |
| 2026-05-05 19:41 | -23.42585 | -46.47303 | 2474 ft | 0 kts | 253° |
| 2026-05-05 19:41 | -23.42587 | -46.47306 | 2474 ft | 0 kts | 253° |